Time;durP1;ratioP1;P1;durP2;ratioP2;P2;SDS_P1;SDS_P2;PMS_P1;PMS_P2;Temp;Humidity;BMP_temperature;BMP_pressure;BME280_temperature;BME280_humidity;BME280_pressure;Samples;Min_cycle;Max_cycle;Signal;HPM_P1;HPM_P2
2023/12/05 00:00:12;;;;;;;15.10;7.25;;;;;;;0.85;78.89;94292.38;5063553;28;20138;-74
2023/12/05 00:02:38;;;;;;;14.88;7.85;;;;;;;0.89;78.85;94306.59;5063770;28;20309;-74
2023/12/05 00:05:04;;;;;;;22.55;9.02;;;;;;;0.93;78.87;94294.56;5063512;28;20021;-74
2023/12/05 00:07:30;;;;;;;15.43;8.52;;;;;;;0.96;78.79;94310.66;5063762;28;20080;-74
2023/12/05 00:09:55;;;;;;;16.40;7.80;;;;;;;0.99;78.13;94299.66;5063632;28;20052;-74
2023/12/05 00:12:21;;;;;;;13.90;7.22;;;;;;;0.98;77.27;94305.94;5063405;28;20016;-74
2023/12/05 00:14:46;;;;;;;15.20;6.72;;;;;;;1.00;76.81;94301.25;5063446;28;20036;-74
2023/12/05 00:17:11;;;;;;;13.95;6.90;;;;;;;1.01;76.59;94307.28;5063323;28;20013;-74
2023/12/05 00:19:37;;;;;;;17.70;8.07;;;;;;;0.99;76.67;94307.53;5063191;28;20017;-74
2023/12/05 00:22:02;;;;;;;15.02;7.88;;;;;;;0.97;76.72;94309.59;5063305;28;20023;-75
2023/12/05 00:24:28;;;;;;;19.00;8.43;;;;;;;0.93;76.69;94310.31;5063397;28;20016;-75
2023/12/05 00:26:53;;;;;;;16.95;8.13;;;;;;;0.95;77.27;94319.53;5063420;28;20310;-75
2023/12/05 00:29:19;;;;;;;16.45;8.07;;;;;;;0.97;77.68;94312.22;5063015;28;20104;-74
2023/12/05 00:31:44;;;;;;;16.38;8.68;;;;;;;1.07;77.95;94318.66;5063139;28;20017;-74
2023/12/05 00:34:10;;;;;;;18.13;9.20;;;;;;;1.10;78.03;94315.53;5062529;28;20050;-75
2023/12/05 00:36:35;;;;;;;18.90;8.07;;;;;;;1.18;77.66;94323.00;5063091;28;20338;-75
2023/12/05 00:39:01;;;;;;;18.60;8.98;;;;;;;1.26;77.74;94325.19;5063014;28;20097;-75
2023/12/05 00:41:26;;;;;;;18.95;8.93;;;;;;;1.32;77.46;94313.75;5062849;28;20357;-74
2023/12/05 00:43:52;;;;;;;18.50;8.70;;;;;;;1.36;77.40;94319.28;5063126;28;20028;-74
2023/12/05 00:46:18;;;;;;;17.40;8.88;;;;;;;1.40;77.28;94320.38;5063012;28;20039;-74
2023/12/05 00:48:43;;;;;;;19.33;8.63;;;;;;;1.44;77.13;94316.22;5062925;28;20021;-74
2023/12/05 00:51:09;;;;;;;20.33;8.85;;;;;;;1.53;76.71;94314.00;5062705;28;20331;-74
2023/12/05 00:53:34;;;;;;;18.88;9.32;;;;;;;1.59;76.42;94313.00;5063086;28;20024;-75
2023/12/05 00:56:00;;;;;;;19.88;11.10;;;;;;;1.63;76.15;94308.84;5063182;28;20024;-75
2023/12/05 00:58:25;;;;;;;21.55;10.10;;;;;;;1.69;75.53;94307.88;5062725;28;20047;-75
2023/12/05 01:00:51;;;;;;;22.08;10.65;;;;;;;1.76;75.48;94311.09;5062553;28;20028;-75
2023/12/05 01:03:16;;;;;;;19.40;10.32;;;;;;;1.80;75.45;94309.56;5062804;28;20226;-74
2023/12/05 01:05:42;;;;;;;23.42;10.48;;;;;;;1.84;75.38;94309.84;5062523;28;20048;-74
2023/12/05 01:08:07;;;;;;;22.23;10.48;;;;;;;1.90;75.36;94308.88;5062733;28;20017;-73
2023/12/05 01:10:32;;;;;;;23.20;11.00;;;;;;;1.94;75.25;94309.19;5062604;28;20136;-74
2023/12/05 01:12:58;;;;;;;20.58;10.32;;;;;;;1.94;75.46;94291.56;5062469;28;20017;-74
2023/12/05 01:15:23;;;;;;;18.20;8.73;;;;;;;1.98;75.68;94290.03;5061540;28;20016;-73
2023/12/05 01:17:49;;;;;;;12.38;6.22;;;;;;;2.05;76.31;94287.19;5062429;28;20025;-75
2023/12/05 01:20:15;;;;;;;10.30;5.35;;;;;;;2.06;77.80;94275.63;5062398;28;20049;-74
2023/12/05 01:22:41;;;;;;;9.40;5.65;;;;;;;2.07;77.78;94269.31;5061193;28;20315;-74
2023/12/05 01:25:07;;;;;;;10.40;5.82;;;;;;;2.06;78.34;94273.00;5062432;28;20092;-74
2023/12/05 01:27:33;;;;;;;11.20;5.18;;;;;;;2.12;78.45;94268.59;5062271;28;20029;-76
2023/12/05 01:29:59;;;;;;;10.75;5.43;;;;;;;2.19;78.29;94259.44;5062124;28;20020;-75
2023/12/05 01:32:24;;;;;;;10.35;5.22;;;;;;;2.20;78.07;94255.78;5062392;28;20056;-76
2023/12/05 01:34:50;;;;;;;11.48;6.20;;;;;;;2.18;77.92;94254.44;5062117;28;20025;-76
2023/12/05 01:37:15;;;;;;;11.82;6.15;;;;;;;2.16;77.55;94254.69;5062388;28;20096;-75
2023/12/05 01:39:41;;;;;;;12.23;5.53;;;;;;;2.19;77.50;94256.03;5062330;28;20016;-75
2023/12/05 01:42:06;;;;;;;14.98;6.10;;;;;;;2.20;77.31;94268.94;5062103;28;20254;-77
2023/12/05 01:44:31;;;;;;;10.77;5.82;;;;;;;2.17;77.35;94252.84;5062407;28;20092;-76
2023/12/05 01:46:59;;;;;;;13.93;5.68;;;;;;;2.21;76.83;94257.34;5064163;28;20218;-76
2023/12/05 01:49:24;;;;;;;10.55;5.90;;;;;;;2.28;76.40;94243.19;5066401;28;20315;-74
2023/12/05 01:51:52;;;;;;;11.48;5.95;;;;;;;2.25;76.24;94239.22;5066187;28;20024;-75
2023/12/05 01:54:18;;;;;;;13.68;5.82;;;;;;;2.29;75.75;94229.78;5066341;28;20056;-73
2023/12/05 01:56:43;;;;;;;17.13;6.32;;;;;;;2.29;75.49;94231.63;5065944;28;20049;-73
2023/12/05 01:59:10;;;;;;;15.20;6.13;;;;;;;2.31;75.51;94237.44;5065958;28;20302;-73
2023/12/05 02:01:36;;;;;;;11.65;5.90;;;;;;;2.34;75.51;94229.03;5065723;28;20029;-73
2023/12/05 02:04:02;;;;;;;13.77;6.45;;;;;;;2.37;75.24;94241.69;5065957;28;20035;-73
2023/12/05 02:06:28;;;;;;;15.05;6.75;;;;;;;2.29;75.53;94236.91;5065931;28;20048;-73
2023/12/05 02:08:53;;;;;;;13.73;7.65;;;;;;;2.32;75.45;94233.75;5065888;28;20112;-74
2023/12/05 02:11:19;;;;;;;13.32;6.75;;;;;;;2.32;75.47;94237.19;5065574;28;20017;-75
2023/12/05 02:13:46;;;;;;;14.82;5.80;;;;;;;2.37;75.34;94234.59;5065822;28;20029;-75
2023/12/05 02:16:24;;;;;;;14.43;7.00;;;;;;;2.42;75.16;94239.09;5065740;28;20245;-75
2023/12/05 02:19:24;;;;;;;12.43;6.43;;;;;;;2.44;75.13;94237.00;5065529;28;20086;-74
2023/12/05 02:21:53;;;;;;;13.98;6.95;;;;;;;2.42;74.97;94228.56;5061760;28;20059;-74
2023/12/05 02:24:21;;;;;;;14.20;6.97;;;;;;;2.44;74.81;94229.09;5065283;28;20266;-75
2023/12/05 02:26:58;;;;;;;15.30;6.63;;;;;;;2.41;74.67;94211.22;5065667;28;20033;-75
2023/12/05 02:29:24;;;;;;;14.40;7.32;;;;;;;2.42;74.74;94220.66;5065619;28;20025;-76
2023/12/05 02:31:50;;;;;;;11.82;6.82;;;;;;;2.44;74.79;94215.94;5065270;28;20024;-76
2023/12/05 02:34:15;;;;;;;13.50;6.40;;;;;;;2.47;74.88;94206.78;5065480;28;20352;-76
2023/12/05 02:37:07;;;;;;;12.90;6.80;;;;;;;2.47;74.83;94202.31;5065466;28;20044;-76
2023/12/05 02:39:44;;;;;;;12.50;6.78;;;;;;;2.50;74.84;94190.47;5065009;28;20020;-77
2023/12/05 02:42:13;;;;;;;12.63;6.47;;;;;;;2.52;74.85;94189.16;5065123;28;20021;-77
2023/12/05 02:44:46;;;;;;;11.45;6.38;;;;;;;2.54;74.63;94187.06;5065128;28;20116;-77
2023/12/05 02:47:13;;;;;;;16.15;7.07;;;;;;;2.53;74.68;94180.25;5065087;28;20028;-76
2023/12/05 02:49:39;;;;;;;13.02;5.72;;;;;;;2.54;74.74;94187.06;5065241;28;20025;-76
2023/12/05 02:52:05;;;;;;;14.48;6.30;;;;;;;2.52;74.73;94172.59;5065086;28;20016;-75
2023/12/05 02:54:30;;;;;;;15.32;6.95;;;;;;;2.53;74.59;94164.44;5064979;28;20271;-76
2023/12/05 02:56:56;;;;;;;11.73;6.88;;;;;;;2.48;74.76;94156.50;5064253;28;20045;-75
2023/12/05 02:59:21;;;;;;;17.23;7.72;;;;;;;2.50;74.71;94161.53;5065097;28;20189;-76
2023/12/05 03:01:47;;;;;;;11.98;6.57;;;;;;;2.48;75.17;94156.50;5064651;28;20021;-76
2023/12/05 03:04:12;;;;;;;11.68;6.38;;;;;;;2.43;75.09;94156.50;5064752;28;20045;-76
2023/12/05 03:06:38;;;;;;;14.88;6.57;;;;;;;2.39;75.05;94168.56;5064750;28;20024;-76
2023/12/05 03:09:04;;;;;;;9.82;5.80;;;;;;;2.36;75.06;94161.19;5064782;28;20029;-76
2023/12/05 03:11:30;;;;;;;14.55;7.05;;;;;;;2.35;75.16;94184.06;5064652;28;20199;-75
2023/12/05 03:13:56;;;;;;;12.25;5.88;;;;;;;2.38;75.07;94182.75;5064591;28;20201;-76
2023/12/05 03:16:21;;;;;;;11.85;6.70;;;;;;;2.37;75.25;94179.34;5064864;28;20058;-76
2023/12/05 03:18:47;;;;;;;12.88;5.43;;;;;;;2.33;75.08;94169.59;5064673;28;20343;-75
2023/12/05 03:21:17;;;;;;;11.85;6.57;;;;;;;2.34;75.02;94171.97;5064328;28;20278;-75
2023/12/05 03:23:43;;;;;;;14.05;7.15;;;;;;;2.31;75.16;94171.69;5063490;28;20315;-75
2023/12/05 03:26:19;;;;;;;10.73;6.22;;;;;;;2.35;74.98;94163.03;5064278;28;20033;-74
2023/12/05 03:28:45;;;;;;;11.68;5.63;;;;;;;2.32;74.94;94158.28;5064292;28;20051;-73
2023/12/05 03:31:10;;;;;;;9.75;5.50;;;;;;;2.32;74.84;94165.34;5064573;28;20017;-72
2023/12/05 03:33:37;;;;;;;13.65;6.15;;;;;;;2.35;74.52;94163.03;5064085;28;20021;-74
2023/12/05 03:36:03;;;;;;;13.23;5.35;;;;;;;2.36;74.36;94164.63;5064184;28;20025;-74
2023/12/05 03:38:28;;;;;;;10.82;5.93;;;;;;;2.33;74.58;94170.38;5064699;28;20056;-74
2023/12/05 03:40:54;;;;;;;13.40;6.13;;;;;;;2.24;74.73;94171.09;5064158;28;20020;-74
2023/12/05 03:43:20;;;;;;;12.82;6.85;;;;;;;2.20;75.20;94176.88;5063992;28;20027;-74
2023/12/05 03:45:45;;;;;;;13.32;7.70;;;;;;;2.20;74.92;94176.09;5064102;28;20337;-76
2023/12/05 03:48:11;;;;;;;13.02;6.22;;;;;;;2.11;74.91;94174.97;5064116;28;20029;-74
2023/12/05 03:50:36;;;;;;;12.40;7.20;;;;;;;1.84;75.57;94173.19;5064006;28;20025;-73
2023/12/05 03:53:04;;;;;;;14.32;7.05;;;;;;;1.79;76.08;94171.31;5063813;28;20020;-72
2023/12/05 03:55:34;;;;;;;13.07;6.85;;;;;;;1.78;75.85;94180.22;5063829;28;20090;-73
2023/12/05 03:58:00;;;;;;;13.48;6.78;;;;;;;1.74;76.04;94178.34;5063754;28;20051;-75
2023/12/05 04:00:25;;;;;;;17.42;7.80;;;;;;;1.68;76.58;94174.09;5063959;28;20044;-74
2023/12/05 04:02:51;;;;;;;14.13;7.72;;;;;;;1.63;76.60;94176.66;5063878;28;20029;-74
2023/12/05 04:05:18;;;;;;;17.48;8.25;;;;;;;1.55;76.78;94180.56;5063843;28;20055;-74
2023/12/05 04:07:45;;;;;;;14.25;7.70;;;;;;;1.49;77.34;94171.03;5063536;28;20284;-75
2023/12/05 04:10:10;;;;;;;16.52;7.53;;;;;;;1.36;77.60;94167.78;5062702;28;20252;-74
2023/12/05 04:12:36;;;;;;;15.95;7.68;;;;;;;1.26;78.61;94172.09;5063200;28;20099;-73
2023/12/05 04:15:01;;;;;;;16.55;8.32;;;;;;;1.22;78.93;94166.53;5063706;28;20023;-75
2023/12/05 04:17:27;;;;;;;17.20;8.18;;;;;;;1.24;79.36;94174.19;5063400;28;20027;-74
2023/12/05 04:19:52;;;;;;;16.27;8.38;;;;;;;1.24;79.75;94182.84;5063398;28;20319;-74
2023/12/05 04:22:17;;;;;;;21.83;9.13;;;;;;;1.19;80.07;94167.06;5063129;28;20029;-74
2023/12/05 04:24:43;;;;;;;16.48;8.98;;;;;;;1.16;80.40;94167.53;5063333;28;20104;-73
2023/12/05 04:27:08;;;;;;;18.92;9.30;;;;;;;1.18;80.97;94160.19;5063241;28;20017;-74
2023/12/05 04:29:34;;;;;;;18.15;9.07;;;;;;;1.17;81.56;94162.03;5063149;28;20042;-74
2023/12/05 04:32:02;;;;;;;23.48;9.23;;;;;;;1.13;82.00;94144.41;5063010;28;20017;-74
2023/12/05 04:34:27;;;;;;;19.38;8.27;;;;;;;1.08;82.25;94178.47;5063127;28;20033;-74
2023/12/05 04:36:53;;;;;;;25.27;10.50;;;;;;;0.92;83.00;94165.19;5063068;28;20377;-74
2023/12/05 04:39:18;;;;;;;22.30;10.60;;;;;;;0.96;83.90;94163.66;5063023;28;20220;-73
2023/12/05 04:41:44;;;;;;;20.40;10.40;;;;;;;0.98;83.94;94150.28;5062907;28;20109;-74
2023/12/05 04:44:09;;;;;;;21.27;9.75;;;;;;;1.03;84.09;94157.44;5063387;28;20284;-74
2023/12/05 04:46:38;;;;;;;23.17;10.85;;;;;;;1.07;83.52;94169.81;5062856;28;20346;-73
2023/12/05 04:49:05;;;;;;;21.05;10.10;;;;;;;1.13;83.30;94163.56;5062900;28;20040;-74
2023/12/05 04:51:31;;;;;;;26.00;10.52;;;;;;;1.14;83.13;94169.59;5062727;28;20035;-74
2023/12/05 04:53:56;;;;;;;22.55;10.65;;;;;;;1.08;83.28;94166.16;5062969;28;20251;-74
2023/12/05 04:56:22;;;;;;;22.50;8.95;;;;;;;1.13;83.40;94168.81;5062680;28;20025;-73
2023/12/05 04:58:48;;;;;;;19.48;10.18;;;;;;;1.17;83.30;94179.63;5062536;28;20033;-73
2023/12/05 05:01:14;;;;;;;22.63;9.13;;;;;;;1.18;83.12;94175.94;5062076;28;20023;-74
2023/12/05 05:03:40;;;;;;;21.73;11.38;;;;;;;1.19;83.25;94177.56;5062397;28;20025;-74
2023/12/05 05:06:05;;;;;;;20.58;10.05;;;;;;;1.20;83.52;94176.50;5062664;28;20096;-75
2023/12/05 05:08:31;;;;;;;18.55;9.35;;;;;;;1.17;83.31;94177.78;5062544;28;20037;-76
2023/12/05 05:10:56;;;;;;;20.95;10.00;;;;;;;1.12;83.27;94171.69;5062574;28;20032;-76
2023/12/05 05:13:21;;;;;;;22.77;10.35;;;;;;;1.15;83.66;94173.84;5062624;28;20025;-76
2023/12/05 05:15:47;;;;;;;21.13;11.13;;;;;;;1.19;83.27;94172.31;5062421;28;20032;-76
2023/12/05 05:18:12;;;;;;;23.10;11.07;;;;;;;1.23;83.11;94183.13;5062635;28;20060;-77
2023/12/05 05:20:38;;;;;;;20.58;10.52;;;;;;;1.21;83.06;94188.59;5063544;28;20039;-74
2023/12/05 05:23:03;;;;;;;23.08;11.25;;;;;;;1.13;83.14;94200.31;5066607;28;20031;-75
2023/12/05 05:25:29;;;;;;;22.75;10.57;;;;;;;1.00;83.25;94201.50;5066721;28;20058;-74
2023/12/05 05:27:54;;;;;;;25.95;11.73;;;;;;;0.98;83.74;94176.53;5066820;28;20342;-73
2023/12/05 05:30:20;;;;;;;26.63;10.00;;;;;;;0.96;83.58;94184.66;5066361;28;20017;-74
2023/12/05 05:32:45;;;;;;;27.00;11.52;;;;;;;0.78;83.73;94191.00;5066478;28;20203;-74
2023/12/05 05:35:11;;;;;;;21.95;11.77;;;;;;;0.70;83.93;94190.63;5066466;28;20250;-74
2023/12/05 05:37:36;;;;;;;22.58;10.63;;;;;;;0.64;84.14;94179.28;5066432;28;20040;-74
2023/12/05 05:40:06;;;;;;;22.98;10.70;;;;;;;0.64;84.08;94174.03;5066063;28;20028;-74
2023/12/05 05:42:32;;;;;;;18.60;10.35;;;;;;;0.71;84.48;94179.09;5066409;28;20020;-74
2023/12/05 05:44:58;;;;;;;24.25;12.15;;;;;;;0.77;84.89;94178.09;5066502;28;20060;-74
2023/12/05 05:47:24;;;;;;;24.08;10.93;;;;;;;0.90;84.64;94184.84;5066470;28;20029;-74
2023/12/05 05:49:49;;;;;;;21.77;10.88;;;;;;;0.98;84.58;94172.06;5066097;28;20027;-74
2023/12/05 05:52:15;;;;;;;29.55;12.50;;;;;;;1.10;84.20;94164.06;5065956;28;20256;-75
2023/12/05 05:54:40;;;;;;;20.63;10.45;;;;;;;1.21;84.01;94143.97;5065967;28;20020;-75
2023/12/05 05:57:06;;;;;;;24.83;12.68;;;;;;;1.29;83.93;94155.88;5065807;28;20037;-74
2023/12/05 05:59:31;;;;;;;29.63;12.70;;;;;;;1.38;83.58;94159.63;5065862;28;20025;-73
2023/12/05 06:01:57;;;;;;;26.83;13.32;;;;;;;1.47;82.83;94171.28;5064652;28;20111;-74
2023/12/05 06:04:22;;;;;;;40.72;17.77;;;;;;;1.53;82.42;94154.53;5066205;28;20234;-74
2023/12/05 06:06:48;;;;;;;40.50;14.45;;;;;;;1.57;82.44;94165.34;5065854;28;20100;-74
2023/12/05 06:09:14;;;;;;;27.23;13.30;;;;;;;1.64;82.40;94147.50;5065515;28;20033;-79
2023/12/05 06:11:39;;;;;;;27.48;12.68;;;;;;;1.73;82.00;94153.09;5065581;28;20132;-81
2023/12/05 06:14:05;;;;;;;29.77;12.27;;;;;;;1.78;81.88;94138.16;5064348;28;20025;-81
2023/12/05 06:16:30;;;;;;;32.88;13.95;;;;;;;1.85;81.35;94134.53;5064295;28;20056;-80
2023/12/05 06:18:55;;;;;;;23.52;11.93;;;;;;;1.91;81.18;94136.16;5064363;28;20031;-79
2023/12/05 06:21:21;;;;;;;31.95;12.57;;;;;;;1.97;80.93;94141.22;5065776;28;20084;-79
2023/12/05 06:23:47;;;;;;;34.33;13.15;;;;;;;2.02;80.46;94129.16;5065457;28;20232;-80
2023/12/05 06:26:12;;;;;;;26.30;12.30;;;;;;;2.05;79.97;94126.78;5065515;28;20319;-80
2023/12/05 06:28:38;;;;;;;23.73;11.57;;;;;;;2.08;79.45;94117.63;5064954;28;20212;-79
2023/12/05 06:31:03;;;;;;;18.48;8.13;;;;;;;2.14;79.18;94124.50;5064282;28;20025;-80
2023/12/05 06:33:29;;;;;;;21.02;8.50;;;;;;;2.17;78.80;94140.53;5064322;28;20254;-79
2023/12/05 06:35:54;;;;;;;21.13;7.78;;;;;;;2.20;78.60;94129.53;5065476;28;20063;-76
2023/12/05 06:38:20;;;;;;;21.95;10.20;;;;;;;2.24;77.54;94139.53;5065313;28;20067;-74
2023/12/05 06:40:45;;;;;;;25.23;12.23;;;;;;;2.26;76.71;94147.97;5065064;28;20346;-78
2023/12/05 06:43:11;;;;;;;22.02;11.95;;;;;;;2.17;77.10;94137.13;5065423;28;20092;-80
2023/12/05 06:45:36;;;;;;;25.35;12.63;;;;;;;2.16;77.28;94138.19;5065477;28;20052;-82
2023/12/05 06:48:02;;;;;;;29.70;13.52;;;;;;;2.19;77.54;94133.19;5066355;28;20044;-79
2023/12/05 06:50:27;;;;;;;30.52;14.80;;;;;;;2.20;77.71;94134.78;5064930;28;20360;-80
2023/12/05 06:52:57;;;;;;;33.92;13.30;;;;;;;2.13;77.92;94134.22;5064488;28;20048;-82
2023/12/05 06:55:23;;;;;;;26.13;13.48;;;;;;;2.08;78.17;94136.81;5062685;28;20219;-82
2023/12/05 06:57:49;;;;;;;34.35;14.18;;;;;;;2.08;77.96;94136.81;5063583;28;20362;-80
2023/12/05 07:00:15;;;;;;;26.27;13.65;;;;;;;1.98;77.90;94140.16;5063147;28;20021;-80
2023/12/05 07:02:41;;;;;;;30.85;16.15;;;;;;;1.92;78.60;94135.13;5063098;28;20028;-79
2023/12/05 07:05:08;;;;;;;31.42;16.23;;;;;;;1.91;78.72;94131.69;5063997;28;20024;-80
2023/12/05 07:07:34;;;;;;;36.00;16.63;;;;;;;1.96;79.07;94128.31;5062593;28;20051;-80
2023/12/05 07:10:00;;;;;;;26.40;14.52;;;;;;;2.05;79.44;94115.50;5064432;28;20048;-80
2023/12/05 07:12:26;;;;;;;31.40;14.25;;;;;;;2.13;79.41;94113.19;5065052;28;20032;-79
2023/12/05 07:14:51;;;;;;;36.55;13.88;;;;;;;2.24;79.39;94094.81;5062747;28;20029;-79
2023/12/05 07:17:18;;;;;;;23.83;12.38;;;;;;;2.32;79.04;94084.63;5063142;28;20062;-80
2023/12/05 07:19:43;;;;;;;26.13;12.80;;;;;;;2.47;78.21;94104.16;5062942;28;20047;-81
2023/12/05 07:22:09;;;;;;;31.55;12.93;;;;;;;2.56;78.15;94098.13;5062980;28;20025;-81
2023/12/05 07:24:35;;;;;;;28.58;14.25;;;;;;;2.67;76.74;94090.31;5062878;28;20222;-80
2023/12/05 07:27:00;;;;;;;25.58;10.23;;;;;;;2.62;75.91;94101.59;5062505;28;20315;-81
2023/12/05 07:29:26;;;;;;;19.15;9.23;;;;;;;2.54;75.87;94092.34;5063983;28;20027;-80
2023/12/05 07:31:51;;;;;;;25.02;11.88;;;;;;;2.54;75.91;94084.44;5064392;28;20361;-81
2023/12/05 07:34:17;;;;;;;26.88;13.63;;;;;;;2.56;75.52;94092.09;5064261;28;20233;-80
2023/12/05 07:36:42;;;;;;;23.15;12.55;;;;;;;2.52;75.39;94101.53;5064219;28;20013;-80
2023/12/05 07:39:10;;;;;;;40.40;18.77;;;;;;;2.40;76.04;94097.28;5064414;28;20040;-81
2023/12/05 07:41:35;;;;;;;29.30;14.15;;;;;;;2.34;76.33;94097.50;5062822;28;20028;-80
2023/12/05 07:44:01;;;;;;;24.05;12.90;;;;;;;2.27;76.00;94105.63;5064188;28;20025;-80
2023/12/05 07:46:28;;;;;;;27.65;14.48;;;;;;;2.16;76.08;94096.13;5064128;28;20041;-80
2023/12/05 07:48:53;;;;;;;30.45;15.45;;;;;;;2.10;76.57;94092.66;5064167;28;20046;-80
2023/12/05 07:51:19;;;;;;;35.97;14.60;;;;;;;2.06;76.98;94099.47;5064039;28;20245;-79
2023/12/05 07:53:45;;;;;;;27.40;15.27;;;;;;;1.97;77.50;94103.59;5063856;28;20039;-80
2023/12/05 07:56:11;;;;;;;31.27;15.82;;;;;;;1.98;77.58;94097.31;5063368;28;20042;-81
2023/12/05 07:58:36;;;;;;;35.50;16.95;;;;;;;1.87;78.26;94108.78;5063702;28;20020;-79
2023/12/05 08:01:02;;;;;;;39.00;16.42;;;;;;;1.88;77.61;94097.25;5063452;28;20216;-78
2023/12/05 08:03:28;;;;;;;31.75;16.13;;;;;;;1.92;77.46;94107.00;5063711;28;20021;-80
2023/12/05 08:05:54;;;;;;;28.33;13.50;;;;;;;1.85;77.51;94113.50;5063840;28;20123;-80
2023/12/05 08:08:20;;;;;;;34.65;15.00;;;;;;;1.90;77.37;94118.81;5063830;28;20020;-80
2023/12/05 08:10:47;;;;;;;32.58;15.00;;;;;;;1.88;77.44;94120.91;5062483;28;20321;-79
2023/12/05 08:13:13;;;;;;;28.38;14.02;;;;;;;1.84;77.47;94130.34;5063563;28;20016;-80
2023/12/05 08:15:38;;;;;;;28.65;14.85;;;;;;;1.75;78.19;94133.44;5062463;28;20247;-80
2023/12/05 08:18:04;;;;;;;28.75;14.02;;;;;;;1.71;78.21;94134.97;5063783;28;20017;-80
2023/12/05 08:20:29;;;;;;;27.92;13.20;;;;;;;1.72;78.18;94139.16;5063228;28;20385;-80
2023/12/05 08:22:55;;;;;;;30.70;14.70;;;;;;;1.77;78.25;94126.09;5063379;28;20030;-80
2023/12/05 08:25:20;;;;;;;35.53;17.05;;;;;;;1.85;78.09;94113.50;5063338;28;20048;-80
2023/12/05 08:27:45;;;;;;;30.38;14.05;;;;;;;1.99;77.46;94114.66;5063416;28;20017;-80
2023/12/05 08:30:12;;;;;;;24.55;12.88;;;;;;;2.03;76.95;94112.31;5062076;28;20315;-80
2023/12/05 08:32:37;;;;;;;30.10;14.70;;;;;;;2.15;76.45;94121.59;5062862;28;20025;-80
2023/12/05 08:35:03;;;;;;;27.95;15.32;;;;;;;2.16;75.83;94117.94;5063222;28;20056;-80
2023/12/05 08:37:31;;;;;;;33.90;14.80;;;;;;;2.21;75.98;94114.53;5063100;28;20055;-79
2023/12/05 08:39:57;;;;;;;29.38;14.20;;;;;;;2.31;75.51;94117.22;5062916;28;20035;-80
2023/12/05 08:42:22;;;;;;;26.27;14.45;;;;;;;2.39;75.32;94121.22;5062868;28;20021;-79
2023/12/05 08:44:48;;;;;;;32.00;13.38;;;;;;;2.50;75.39;94117.59;5062855;28;20349;-80
2023/12/05 08:47:13;;;;;;;29.88;13.65;;;;;;;2.58;73.90;94119.72;5062733;28;20033;-80
2023/12/05 08:49:39;;;;;;;32.33;13.85;;;;;;;2.71;73.53;94113.22;5062895;28;20025;-80
2023/12/05 08:52:05;;;;;;;25.30;12.52;;;;;;;2.74;73.25;94119.81;5063298;28;20092;-80
2023/12/05 08:54:30;;;;;;;27.50;13.38;;;;;;;2.77;73.88;94111.41;5062776;28;20079;-86
2023/12/05 08:56:56;;;;;;;21.92;12.15;;;;;;;2.94;72.81;94104.06;5062900;28;20052;-81
2023/12/05 08:59:21;;;;;;;28.40;14.65;;;;;;;2.99;72.66;94098.03;5062865;28;20024;-80
2023/12/05 09:01:47;;;;;;;29.10;13.65;;;;;;;3.14;72.97;94095.44;5063297;28;20327;-82
2023/12/05 09:04:13;;;;;;;27.88;12.15;;;;;;;3.13;71.68;94093.06;5062371;28;20035;-82
2023/12/05 09:06:38;;;;;;;25.17;12.15;;;;;;;3.21;72.07;94074.91;5062817;28;20037;-81
2023/12/05 09:09:04;;;;;;;21.60;10.90;;;;;;;3.38;72.41;94073.88;5062664;28;20036;-81
2023/12/05 09:11:29;;;;;;;22.60;12.02;;;;;;;3.58;72.35;94073.09;5062917;28;20036;-80
2023/12/05 09:13:55;;;;;;;22.17;10.63;;;;;;;3.77;70.42;94065.44;5063008;28;20025;-82
2023/12/05 09:16:20;;;;;;;23.30;10.70;;;;;;;3.94;69.29;94073.06;5062522;28;20033;-80
2023/12/05 09:18:46;;;;;;;22.67;11.52;;;;;;;4.04;68.87;94059.88;5062706;28;20364;-80
2023/12/05 09:21:11;;;;;;;23.88;11.10;;;;;;;4.16;69.10;94052.47;5062430;28;20093;-80
2023/12/05 09:23:37;;;;;;;20.73;10.82;;;;;;;4.26;67.95;94051.66;5062610;28;20025;-78
2023/12/05 09:26:04;;;;;;;21.10;10.82;;;;;;;4.40;68.10;94049.25;5062480;28;20088;-78
2023/12/05 09:28:32;;;;;;;23.33;12.07;;;;;;;4.54;68.06;94046.78;5062776;28;20028;-78
2023/12/05 09:30:57;;;;;;;19.88;9.68;;;;;;;4.68;67.03;94039.88;5062550;28;20017;-78
2023/12/05 09:33:23;;;;;;;20.58;10.43;;;;;;;4.74;66.07;94022.16;5062645;28;20043;-78
2023/12/05 09:35:48;;;;;;;24.00;10.43;;;;;;;4.81;64.63;94028.72;5062596;28;20222;-78
2023/12/05 09:38:14;;;;;;;24.35;10.57;;;;;;;4.72;64.74;94027.72;5062395;28;20051;-80
2023/12/05 09:40:39;;;;;;;22.15;11.32;;;;;;;4.75;64.88;94021.88;5062242;28;20079;-79
2023/12/05 09:43:07;;;;;;;24.08;10.90;;;;;;;4.75;65.26;94034.31;5062516;28;20051;-80
2023/12/05 09:45:42;;;;;;;29.35;11.85;;;;;;;4.83;65.63;94020.53;5062514;28;20082;-79
2023/12/05 09:48:10;;;;;;;22.25;10.65;;;;;;;4.89;65.39;94026.59;5062447;28;20033;-80
2023/12/05 09:50:36;;;;;;;20.80;10.02;;;;;;;4.95;64.96;94015.72;5062309;28;20084;-80
2023/12/05 09:53:02;;;;;;;21.80;9.80;;;;;;;5.00;64.78;94015.66;5061159;28;20027;-79
2023/12/05 09:55:28;;;;;;;22.15;10.07;;;;;;;4.96;65.38;94004.06;5062343;28;20223;-81
2023/12/05 09:57:56;;;;;;;34.00;10.13;;;;;;;5.10;65.52;94006.09;5062371;28;20048;-80
2023/12/05 10:00:22;;;;;;;24.42;11.88;;;;;;;5.19;64.63;93996.50;5062430;28;20025;-81
2023/12/05 10:02:49;;;;;;;29.13;11.95;;;;;;;5.18;64.55;93994.94;5062256;28;20029;-80
2023/12/05 10:05:15;;;;;;;25.20;11.25;;;;;;;5.23;64.09;93990.41;5062268;28;20092;-81
2023/12/05 10:07:43;;;;;;;28.90;11.18;;;;;;;5.32;63.84;93987.97;5063559;28;20118;-81
2023/12/05 10:10:10;;;;;;;23.33;11.43;;;;;;;5.26;63.62;93973.22;5065929;28;20032;-81
2023/12/05 10:12:36;;;;;;;28.20;11.43;;;;;;;5.25;63.41;93982.22;5065990;28;20083;-77
2023/12/05 10:15:02;;;;;;;24.65;10.07;;;;;;;5.26;63.37;93967.16;5066641;28;20044;-81
2023/12/05 10:17:38;;;;;;;;;;;;;;;;;;;;;
2023/12/05 10:20:05;;;;;;;27.88;10.68;;;;;;;5.29;64.52;93951.53;5066961;28;20067;-83
2023/12/05 10:22:33;;;;;;;21.10;11.95;;;;;;;5.41;64.24;93962.53;5066346;28;20067;-86
2023/12/05 10:24:59;;;;;;;21.13;10.00;;;;;;;5.53;64.43;93934.91;5066910;28;20250;-87
2023/12/05 10:27:26;;;;;;;25.38;9.73;;;;;;;5.67;64.23;93937.69;5066211;28;20024;-86
2023/12/05 10:29:51;;;;;;;21.77;9.82;;;;;;;5.87;64.07;93939.34;5066471;28;20262;-88
2023/12/05 10:32:25;;;;;;;18.20;8.05;;;;;;;6.06;63.66;93932.28;5065243;28;20017;-87
2023/12/05 10:34:53;;;;;;;20.77;8.13;;;;;;;6.19;63.43;93923.66;5065153;28;20040;-88
2023/12/05 10:37:23;;;;;;;23.58;8.73;;;;;;;6.31;62.76;93928.56;5066179;28;20433;-89
2023/12/05 10:39:53;;;;;;;20.58;7.57;;;;;;;6.40;62.42;93921.53;5065798;28;20061;-88
2023/12/05 10:42:19;;;;;;;18.30;8.48;;;;;;;6.44;62.00;93916.47;5067318;28;20024;-88
2023/12/05 10:44:45;;;;;;;24.83;9.43;;;;;;;6.57;61.47;93910.47;5067303;28;20131;-88
2023/12/05 10:47:12;;;;;;;19.63;9.48;;;;;;;6.66;61.43;93907.19;5066654;28;20219;-89
2023/12/05 10:49:42;;;;;;;17.27;7.70;;;;;;;6.69;59.91;93896.78;5066983;28;20064;-88
2023/12/05 10:52:16;;;;;;;19.45;7.93;;;;;;;6.73;59.78;93889.84;5066920;28;20024;-89
2023/12/05 10:54:44;;;;;;;19.15;9.10;;;;;;;6.64;60.15;93878.31;5065647;28;20041;-89
2023/12/05 10:57:09;;;;;;;16.30;8.20;;;;;;;6.69;60.37;93880.09;5065496;28;20107;-90
2023/12/05 10:59:40;;;;;;;20.83;8.15;;;;;;;6.45;60.07;93882.81;5065736;28;20319;-83
2023/12/05 11:02:12;;;;;;;18.60;8.50;;;;;;;6.40;60.55;93876.53;5065182;28;20029;-88
2023/12/05 11:04:39;;;;;;;21.52;7.43;;;;;;;6.32;61.44;93892.28;5067774;28;20059;-87
2023/12/05 11:07:04;;;;;;;17.50;7.88;;;;;;;6.39;61.19;93893.50;5066134;28;20088;-86
2023/12/05 11:09:30;;;;;;;16.90;8.07;;;;;;;6.42;60.60;93884.19;5065905;28;20025;-82
2023/12/05 11:11:56;;;;;;;16.23;7.90;;;;;;;6.39;61.25;93871.50;5064440;28;20032;-84
2023/12/05 11:14:24;;;;;;;23.20;9.77;;;;;;;6.35;61.22;93876.63;5064304;28;20218;-83
2023/12/05 11:16:53;;;;;;;15.35;8.75;;;;;;;6.28;61.23;93873.53;5065579;28;20218;-85
2023/12/05 11:19:24;;;;;;;15.15;8.57;;;;;;;6.15;60.84;93869.72;5063879;28;20048;-87
2023/12/05 11:22:24;;;;;;;15.00;8.63;;;;;;;6.05;61.83;93855.84;5064194;28;20048;-86
2023/12/05 11:25:17;;;;;;;17.60;8.75;;;;;;;6.13;62.61;93863.94;5058756;28;20032;-83
2023/12/05 11:28:16;;;;;;;30.55;8.75;;;;;;;6.22;62.15;93859.56;5065270;28;20103;-84